sensor_id;sensor_type;location;lat;lon;timestamp;pressure;altitude;pressure_sealevel;temperature;humidity
27334;BME280;14817;57.104;-2.094;2023-05-23T00:00:58;101728.28;;;9.23;100.00
27334;BME280;14817;57.104;-2.094;2023-05-23T00:03:25;101727.31;;;9.24;100.00
27334;BME280;14817;57.104;-2.094;2023-05-23T00:05:53;101721.72;;;9.15;100.00
27334;BME280;14817;57.104;-2.094;2023-05-23T00:08:22;101720.38;;;9.21;100.00
27334;BME280;14817;57.104;-2.094;2023-05-23T00:10:49;101715.44;;;9.04;100.00
27334;BME280;14817;57.104;-2.094;2023-05-23T00:13:17;101715.38;;;9.16;100.00
27334;BME280;14817;57.104;-2.094;2023-05-23T00:15:44;101713.84;;;9.25;100.00
27334;BME280;14817;57.104;-2.094;2023-05-23T00:18:11;101706.66;;;9.26;100.00
27334;BME280;14817;57.104;-2.094;2023-05-23T00:20:39;101705.47;;;9.30;100.00
27334;BME280;14817;57.104;-2.094;2023-05-23T00:23:09;101695.47;;;9.20;100.00
27334;BME280;14817;57.104;-2.094;2023-05-23T00:25:36;101698.50;;;9.16;100.00
27334;BME280;14817;57.104;-2.094;2023-05-23T00:28:04;101693.06;;;9.17;100.00
27334;BME280;14817;57.104;-2.094;2023-05-23T00:30:32;101690.59;;;9.14;100.00
27334;BME280;14817;57.104;-2.094;2023-05-23T00:33:00;101683.56;;;9.13;100.00
27334;BME280;14817;57.104;-2.094;2023-05-23T00:35:27;101679.75;;;9.05;100.00
27334;BME280;14817;57.104;-2.094;2023-05-23T00:37:53;101686.09;;;9.15;100.00
27334;BME280;14817;57.104;-2.094;2023-05-23T00:40:21;101695.94;;;9.14;100.00
27334;BME280;14817;57.104;-2.094;2023-05-23T00:42:48;101694.00;;;9.16;100.00
27334;BME280;14817;57.104;-2.094;2023-05-23T00:45:15;101685.41;;;9.00;100.00
27334;BME280;14817;57.104;-2.094;2023-05-23T00:47:45;101690.50;;;8.92;100.00
27334;BME280;14817;57.104;-2.094;2023-05-23T00:50:14;101687.13;;;9.01;100.00
27334;BME280;14817;57.104;-2.094;2023-05-23T00:52:43;101683.47;;;9.02;100.00
27334;BME280;14817;57.104;-2.094;2023-05-23T00:55:11;101678.66;;;9.07;100.00
27334;BME280;14817;57.104;-2.094;2023-05-23T00:57:39;101685.28;;;9.26;100.00
27334;BME280;14817;57.104;-2.094;2023-05-23T01:00:07;101689.56;;;9.28;100.00
27334;BME280;14817;57.104;-2.094;2023-05-23T01:02:53;101688.19;;;9.23;100.00
27334;BME280;14817;57.104;-2.094;2023-05-23T01:05:21;101691.88;;;9.09;100.00
27334;BME280;14817;57.104;-2.094;2023-05-23T01:07:51;101693.25;;;9.14;100.00
27334;BME280;14817;57.104;-2.094;2023-05-23T01:10:20;101686.59;;;8.96;100.00
27334;BME280;14817;57.104;-2.094;2023-05-23T01:18:54;101693.44;;;9.00;100.00
27334;BME280;14817;57.104;-2.094;2023-05-23T01:21:25;101705.19;;;8.97;100.00
27334;BME280;14817;57.104;-2.094;2023-05-23T01:27:00;101700.50;;;9.01;100.00
27334;BME280;14817;57.104;-2.094;2023-05-23T01:32:00;101690.94;;;8.86;100.00
27334;BME280;14817;57.104;-2.094;2023-05-23T01:34:29;101688.31;;;8.97;100.00
27334;BME280;14817;57.104;-2.094;2023-05-23T01:36:57;101687.34;;;8.98;100.00
27334;BME280;14817;57.104;-2.094;2023-05-23T01:39:24;101701.53;;;8.74;100.00
27334;BME280;14817;57.104;-2.094;2023-05-23T01:41:52;101695.44;;;8.72;100.00
27334;BME280;14817;57.104;-2.094;2023-05-23T01:44:20;101691.59;;;8.76;100.00
27334;BME280;14817;57.104;-2.094;2023-05-23T01:46:48;101695.34;;;8.74;100.00
27334;BME280;14817;57.104;-2.094;2023-05-23T01:49:15;101685.47;;;8.87;100.00
27334;BME280;14817;57.104;-2.094;2023-05-23T01:51:44;101682.00;;;8.74;100.00
27334;BME280;14817;57.104;-2.094;2023-05-23T01:54:13;101677.19;;;8.66;100.00
27334;BME280;14817;57.104;-2.094;2023-05-23T01:56:43;101676.53;;;8.51;100.00
27334;BME280;14817;57.104;-2.094;2023-05-23T01:59:11;101681.66;;;8.42;100.00
27334;BME280;14817;57.104;-2.094;2023-05-23T02:01:38;101681.31;;;8.33;100.00
27334;BME280;14817;57.104;-2.094;2023-05-23T02:04:05;101689.13;;;8.49;100.00
27334;BME280;14817;57.104;-2.094;2023-05-23T02:06:32;101686.75;;;8.45;100.00
27334;BME280;14817;57.104;-2.094;2023-05-23T02:08:59;101687.28;;;8.50;100.00
27334;BME280;14817;57.104;-2.094;2023-05-23T02:11:26;101687.38;;;8.61;100.00
27334;BME280;14817;57.104;-2.094;2023-05-23T02:13:53;101680.47;;;8.46;100.00
27334;BME280;14817;57.104;-2.094;2023-05-23T02:16:20;101675.88;;;8.35;100.00
27334;BME280;14817;57.104;-2.094;2023-05-23T02:18:49;101674.72;;;8.26;100.00
27334;BME280;14817;57.104;-2.094;2023-05-23T02:21:18;101681.31;;;8.33;100.00
27334;BME280;14817;57.104;-2.094;2023-05-23T02:23:45;101678.47;;;8.11;100.00
27334;BME280;14817;57.104;-2.094;2023-05-23T02:26:15;101680.81;;;8.03;100.00
27334;BME280;14817;57.104;-2.094;2023-05-23T02:28:43;101679.22;;;8.00;100.00
27334;BME280;14817;57.104;-2.094;2023-05-23T02:31:10;101671.31;;;8.11;100.00
27334;BME280;14817;57.104;-2.094;2023-05-23T02:33:37;101669.16;;;8.04;100.00
27334;BME280;14817;57.104;-2.094;2023-05-23T02:36:04;101669.50;;;7.99;100.00
27334;BME280;14817;57.104;-2.094;2023-05-23T02:38:31;101667.25;;;8.06;100.00
27334;BME280;14817;57.104;-2.094;2023-05-23T02:40:58;101668.66;;;7.98;100.00
27334;BME280;14817;57.104;-2.094;2023-05-23T02:43:28;101668.75;;;7.97;100.00
27334;BME280;14817;57.104;-2.094;2023-05-23T02:45:55;101679.09;;;7.89;100.00
27334;BME280;14817;57.104;-2.094;2023-05-23T02:48:22;101668.00;;;7.82;100.00
27334;BME280;14817;57.104;-2.094;2023-05-23T02:50:49;101671.41;;;7.84;100.00
27334;BME280;14817;57.104;-2.094;2023-05-23T02:53:16;101662.25;;;7.75;100.00
27334;BME280;14817;57.104;-2.094;2023-05-23T02:55:43;101651.34;;;7.66;100.00
27334;BME280;14817;57.104;-2.094;2023-05-23T02:58:10;101654.22;;;7.63;100.00
27334;BME280;14817;57.104;-2.094;2023-05-23T03:00:37;101650.50;;;7.52;100.00
27334;BME280;14817;57.104;-2.094;2023-05-23T03:03:04;101658.16;;;7.44;100.00
27334;BME280;14817;57.104;-2.094;2023-05-23T03:05:31;101666.25;;;7.30;100.00
27334;BME280;14817;57.104;-2.094;2023-05-23T03:07:58;101658.13;;;7.31;100.00
27334;BME280;14817;57.104;-2.094;2023-05-23T03:10:25;101660.03;;;7.29;100.00
27334;BME280;14817;57.104;-2.094;2023-05-23T03:12:54;101655.03;;;7.38;100.00
27334;BME280;14817;57.104;-2.094;2023-05-23T03:15:21;101654.31;;;7.48;100.00
27334;BME280;14817;57.104;-2.094;2023-05-23T03:17:47;101654.97;;;7.52;100.00
27334;BME280;14817;57.104;-2.094;2023-05-23T03:20:15;101665.84;;;7.62;100.00
27334;BME280;14817;57.104;-2.094;2023-05-23T03:22:42;101672.25;;;7.59;100.00
27334;BME280;14817;57.104;-2.094;2023-05-23T03:25:11;101683.56;;;7.63;100.00
27334;BME280;14817;57.104;-2.094;2023-05-23T03:27:38;101681.22;;;7.71;100.00
27334;BME280;14817;57.104;-2.094;2023-05-23T03:30:05;101681.13;;;7.60;100.00
27334;BME280;14817;57.104;-2.094;2023-05-23T03:32:32;101666.28;;;7.55;100.00
27334;BME280;14817;57.104;-2.094;2023-05-23T03:34:59;101658.41;;;7.67;100.00
27334;BME280;14817;57.104;-2.094;2023-05-23T03:37:26;101665.44;;;7.68;100.00
27334;BME280;14817;57.104;-2.094;2023-05-23T03:39:53;101670.75;;;7.68;100.00
27334;BME280;14817;57.104;-2.094;2023-05-23T03:42:20;101670.34;;;7.74;100.00
27334;BME280;14817;57.104;-2.094;2023-05-23T03:44:47;101668.09;;;7.81;100.00
27334;BME280;14817;57.104;-2.094;2023-05-23T03:47:14;101669.91;;;7.67;100.00
27334;BME280;14817;57.104;-2.094;2023-05-23T03:49:43;101667.47;;;7.64;100.00
27334;BME280;14817;57.104;-2.094;2023-05-23T03:52:11;101665.44;;;7.68;100.00
27334;BME280;14817;57.104;-2.094;2023-05-23T03:54:38;101666.31;;;7.68;100.00
27334;BME280;14817;57.104;-2.094;2023-05-23T03:57:06;101669.47;;;7.61;100.00
27334;BME280;14817;57.104;-2.094;2023-05-23T03:59:35;101666.69;;;7.49;100.00
27334;BME280;14817;57.104;-2.094;2023-05-23T04:02:05;101667.03;;;7.57;100.00
27334;BME280;14817;57.104;-2.094;2023-05-23T04:04:32;101664.56;;;7.54;100.00
27334;BME280;14817;57.104;-2.094;2023-05-23T04:06:59;101655.28;;;7.47;100.00
27334;BME280;14817;57.104;-2.094;2023-05-23T04:09:27;101646.44;;;7.47;100.00
27334;BME280;14817;57.104;-2.094;2023-05-23T04:11:54;101639.06;;;7.38;100.00
27334;BME280;14817;57.104;-2.094;2023-05-23T04:14:21;101644.06;;;7.42;100.00
27334;BME280;14817;57.104;-2.094;2023-05-23T04:16:50;101648.13;;;7.48;100.00
27334;BME280;14817;57.104;-2.094;2023-05-23T04:19:18;101654.47;;;7.60;100.00
27334;BME280;14817;57.104;-2.094;2023-05-23T04:21:44;101655.50;;;7.95;100.00
27334;BME280;14817;57.104;-2.094;2023-05-23T04:24:14;101656.38;;;8.22;100.00
27334;BME280;14817;57.104;-2.094;2023-05-23T04:26:42;101654.47;;;8.61;100.00
27334;BME280;14817;57.104;-2.094;2023-05-23T04:29:09;101648.50;;;8.57;100.00
27334;BME280;14817;57.104;-2.094;2023-05-23T04:31:37;101647.47;;;8.84;100.00
27334;BME280;14817;57.104;-2.094;2023-05-23T04:34:04;101648.34;;;8.95;100.00
27334;BME280;14817;57.104;-2.094;2023-05-23T04:36:36;101657.00;;;8.75;100.00
27334;BME280;14817;57.104;-2.094;2023-05-23T04:39:04;101660.38;;;8.90;100.00
27334;BME280;14817;57.104;-2.094;2023-05-23T04:41:35;101660.84;;;9.54;100.00
27334;BME280;14817;57.104;-2.094;2023-05-23T04:44:25;101666.28;;;10.11;100.00
27334;BME280;14817;57.104;-2.094;2023-05-23T04:47:19;101664.56;;;10.21;100.00
27334;BME280;14817;57.104;-2.094;2023-05-23T04:50:15;101654.38;;;10.37;100.00
27334;BME280;14817;57.104;-2.094;2023-05-23T04:52:43;101650.47;;;10.19;100.00
27334;BME280;14817;57.104;-2.094;2023-05-23T04:55:10;101652.88;;;10.11;100.00
27334;BME280;14817;57.104;-2.094;2023-05-23T04:57:37;101647.78;;;10.96;100.00
27334;BME280;14817;57.104;-2.094;2023-05-23T05:00:06;101655.72;;;11.51;100.00
27334;BME280;14817;57.104;-2.094;2023-05-23T05:02:38;101667.38;;;11.82;100.00
27334;BME280;14817;57.104;-2.094;2023-05-23T05:05:05;101667.81;;;12.49;100.00
27334;BME280;14817;57.104;-2.094;2023-05-23T05:07:33;101664.38;;;12.87;100.00
27334;BME280;14817;57.104;-2.094;2023-05-23T05:10:02;101668.50;;;12.92;100.00
27334;BME280;14817;57.104;-2.094;2023-05-23T05:12:31;101650.56;;;13.41;100.00
27334;BME280;14817;57.104;-2.094;2023-05-23T05:14:58;101651.63;;;13.67;100.00
27334;BME280;14817;57.104;-2.094;2023-05-23T05:17:26;101648.69;;;13.41;100.00
27334;BME280;14817;57.104;-2.094;2023-05-23T05:20:03;101650.78;;;13.77;100.00
27334;BME280;14817;57.104;-2.094;2023-05-23T05:22:36;101650.19;;;14.48;100.00
27334;BME280;14817;57.104;-2.094;2023-05-23T05:25:07;101647.97;;;14.71;100.00
27334;BME280;14817;57.104;-2.094;2023-05-23T05:27:38;101651.97;;;14.67;100.00
27334;BME280;14817;57.104;-2.094;2023-05-23T05:30:09;101642.19;;;13.44;100.00
27334;BME280;14817;57.104;-2.094;2023-05-23T05:32:47;101634.28;;;14.27;100.00
27334;BME280;14817;57.104;-2.094;2023-05-23T05:35:14;101637.28;;;14.97;100.00
27334;BME280;14817;57.104;-2.094;2023-05-23T05:37:42;101632.81;;;14.42;100.00
27334;BME280;14817;57.104;-2.094;2023-05-23T05:40:11;101629.13;;;15.07;100.00
27334;BME280;14817;57.104;-2.094;2023-05-23T05:42:40;101638.03;;;15.43;100.00
27334;BME280;14817;57.104;-2.094;2023-05-23T05:45:09;101638.31;;;15.58;100.00
27334;BME280;14817;57.104;-2.094;2023-05-23T05:47:38;101635.88;;;16.33;100.00
27334;BME280;14817;57.104;-2.094;2023-05-23T05:50:07;101647.03;;;16.30;100.00
27334;BME280;14817;57.104;-2.094;2023-05-23T05:52:36;101638.13;;;16.46;100.00
27334;BME280;14817;57.104;-2.094;2023-05-23T05:55:09;101631.63;;;16.73;100.00
27334;BME280;14817;57.104;-2.094;2023-05-23T05:57:44;101619.69;;;17.50;100.00
27334;BME280;14817;57.104;-2.094;2023-05-23T06:00:13;101634.03;;;16.85;100.00
27334;BME280;14817;57.104;-2.094;2023-05-23T06:02:54;101634.94;;;16.51;100.00
27334;BME280;14817;57.104;-2.094;2023-05-23T06:05:33;101631.19;;;17.27;100.00
27334;BME280;14817;57.104;-2.094;2023-05-23T06:08:00;101635.06;;;17.66;100.00
27334;BME280;14817;57.104;-2.094;2023-05-23T06:10:28;101635.59;;;17.61;100.00
27334;BME280;14817;57.104;-2.094;2023-05-23T06:12:56;101642.16;;;17.83;100.00
27334;BME280;14817;57.104;-2.094;2023-05-23T06:15:24;101646.72;;;17.74;100.00
27334;BME280;14817;57.104;-2.094;2023-05-23T06:17:51;101639.03;;;18.19;100.00
27334;BME280;14817;57.104;-2.094;2023-05-23T06:20:19;101642.78;;;18.10;100.00
27334;BME280;14817;57.104;-2.094;2023-05-23T06:22:46;101641.00;;;17.69;100.00
27334;BME280;14817;57.104;-2.094;2023-05-23T06:25:14;101641.84;;;17.12;100.00
27334;BME280;14817;57.104;-2.094;2023-05-23T06:27:43;101644.41;;;17.22;100.00
27334;BME280;14817;57.104;-2.094;2023-05-23T06:30:12;101641.97;;;17.76;100.00
27334;BME280;14817;57.104;-2.094;2023-05-23T06:32:39;101644.38;;;17.55;100.00
27334;BME280;14817;57.104;-2.094;2023-05-23T06:35:07;101645.41;;;17.38;100.00
27334;BME280;14817;57.104;-2.094;2023-05-23T06:37:34;101642.69;;;17.13;100.00
27334;BME280;14817;57.104;-2.094;2023-05-23T06:40:01;101642.69;;;16.97;100.00
27334;BME280;14817;57.104;-2.094;2023-05-23T06:42:29;101637.63;;;17.43;100.00
27334;BME280;14817;57.104;-2.094;2023-05-23T06:45:09;101641.31;;;17.91;100.00
27334;BME280;14817;57.104;-2.094;2023-05-23T06:47:37;101638.00;;;18.20;100.00
27334;BME280;14817;57.104;-2.094;2023-05-23T06:50:04;101638.81;;;18.29;100.00
27334;BME280;14817;57.104;-2.094;2023-05-23T06:52:32;101633.69;;;18.42;100.00
27334;BME280;14817;57.104;-2.094;2023-05-23T06:54:58;101632.44;;;18.53;100.00
27334;BME280;14817;57.104;-2.094;2023-05-23T06:57:26;101635.22;;;17.89;100.00
27334;BME280;14817;57.104;-2.094;2023-05-23T06:59:55;101638.69;;;18.53;100.00
27334;BME280;14817;57.104;-2.094;2023-05-23T07:02:22;101638.06;;;18.74;100.00
27334;BME280;14817;57.104;-2.094;2023-05-23T07:04:49;101637.63;;;18.94;100.00
27334;BME280;14817;57.104;-2.094;2023-05-23T07:07:37;101642.69;;;19.20;100.00
27334;BME280;14817;57.104;-2.094;2023-05-23T07:10:08;101638.09;;;19.82;100.00
27334;BME280;14817;57.104;-2.094;2023-05-23T07:12:35;101637.38;;;20.17;100.00
27334;BME280;14817;57.104;-2.094;2023-05-23T07:15:03;101646.63;;;18.63;100.00
27334;BME280;14817;57.104;-2.094;2023-05-23T07:17:30;101639.88;;;19.13;100.00
27334;BME280;14817;57.104;-2.094;2023-05-23T07:19:58;101644.88;;;18.39;100.00
27334;BME280;14817;57.104;-2.094;2023-05-23T07:22:25;101642.38;;;18.29;100.00
27334;BME280;14817;57.104;-2.094;2023-05-23T07:24:52;101642.34;;;17.82;100.00
27334;BME280;14817;57.104;-2.094;2023-05-23T07:27:25;101646.00;;;18.53;100.00
27334;BME280;14817;57.104;-2.094;2023-05-23T07:29:52;101648.53;;;18.54;100.00
27334;BME280;14817;57.104;-2.094;2023-05-23T07:32:19;101648.06;;;19.28;100.00
27334;BME280;14817;57.104;-2.094;2023-05-23T07:34:47;101652.22;;;19.39;100.00
27334;BME280;14817;57.104;-2.094;2023-05-23T07:37:13;101641.13;;;19.87;100.00
27334;BME280;14817;57.104;-2.094;2023-05-23T07:39:43;101638.84;;;19.90;100.00
27334;BME280;14817;57.104;-2.094;2023-05-23T07:42:09;101636.53;;;20.02;100.00
27334;BME280;14817;57.104;-2.094;2023-05-23T07:44:37;101637.09;;;20.27;100.00
27334;BME280;14817;57.104;-2.094;2023-05-23T07:47:04;101633.41;;;20.05;100.00
27334;BME280;14817;57.104;-2.094;2023-05-23T07:49:34;101624.31;;;20.28;100.00
27334;BME280;14817;57.104;-2.094;2023-05-23T07:52:03;101625.47;;;20.04;100.00
27334;BME280;14817;57.104;-2.094;2023-05-23T07:54:32;101623.19;;;19.77;100.00
27334;BME280;14817;57.104;-2.094;2023-05-23T07:57:01;101623.69;;;19.58;100.00
27334;BME280;14817;57.104;-2.094;2023-05-23T07:59:28;101618.78;;;20.21;100.00
27334;BME280;14817;57.104;-2.094;2023-05-23T08:01:56;101613.25;;;20.29;100.00
27334;BME280;14817;57.104;-2.094;2023-05-23T08:04:25;101613.09;;;20.67;100.00
27334;BME280;14817;57.104;-2.094;2023-05-23T08:06:53;101617.81;;;20.58;100.00
27334;BME280;14817;57.104;-2.094;2023-05-23T08:09:27;101624.94;;;20.45;100.00
27334;BME280;14817;57.104;-2.094;2023-05-23T08:11:56;101626.91;;;20.66;100.00
27334;BME280;14817;57.104;-2.094;2023-05-23T08:14:23;101625.81;;;20.01;100.00
27334;BME280;14817;57.104;-2.094;2023-05-23T08:17:16;101627.72;;;20.15;100.00
27334;BME280;14817;57.104;-2.094;2023-05-23T08:19:45;101619.56;;;20.15;100.00
27334;BME280;14817;57.104;-2.094;2023-05-23T08:22:12;101616.56;;;19.80;100.00
27334;BME280;14817;57.104;-2.094;2023-05-23T08:24:39;101615.59;;;20.32;100.00
27334;BME280;14817;57.104;-2.094;2023-05-23T08:27:06;101618.16;;;20.70;100.00
27334;BME280;14817;57.104;-2.094;2023-05-23T08:29:34;101603.22;;;20.30;100.00
27334;BME280;14817;57.104;-2.094;2023-05-23T08:32:02;101603.69;;;20.18;100.00
27334;BME280;14817;57.104;-2.094;2023-05-23T08:34:29;101593.75;;;20.26;100.00
27334;BME280;14817;57.104;-2.094;2023-05-23T08:36:56;101603.38;;;20.58;100.00
27334;BME280;14817;57.104;-2.094;2023-05-23T08:39:23;101590.66;;;20.50;100.00
27334;BME280;14817;57.104;-2.094;2023-05-23T08:42:00;101598.56;;;20.45;100.00
27334;BME280;14817;57.104;-2.094;2023-05-23T08:44:27;101594.56;;;20.26;100.00
27334;BME280;14817;57.104;-2.094;2023-05-23T08:47:02;101590.31;;;20.02;100.00
27334;BME280;14817;57.104;-2.094;2023-05-23T08:49:45;101581.75;;;20.05;100.00
27334;BME280;14817;57.104;-2.094;2023-05-23T08:52:17;101581.56;;;20.22;100.00
27334;BME280;14817;57.104;-2.094;2023-05-23T08:54:51;101576.41;;;19.97;100.00
27334;BME280;14817;57.104;-2.094;2023-05-23T08:57:18;101567.56;;;20.10;100.00
27334;BME280;14817;57.104;-2.094;2023-05-23T08:59:51;101564.50;;;20.13;100.00
27334;BME280;14817;57.104;-2.094;2023-05-23T09:02:19;101569.47;;;20.60;100.00
27334;BME280;14817;57.104;-2.094;2023-05-23T09:04:49;101564.25;;;20.59;100.00
27334;BME280;14817;57.104;-2.094;2023-05-23T09:07:21;101563.84;;;20.62;100.00
27334;BME280;14817;57.104;-2.094;2023-05-23T09:09:50;101565.19;;;20.73;100.00
27334;BME280;14817;57.104;-2.094;2023-05-23T09:12:18;101561.06;;;20.40;100.00
27334;BME280;14817;57.104;-2.094;2023-05-23T09:14:49;101555.84;;;20.82;100.00
27334;BME280;14817;57.104;-2.094;2023-05-23T09:17:20;101559.09;;;21.14;100.00
27334;BME280;14817;57.104;-2.094;2023-05-23T09:19:49;101559.03;;;21.07;100.00
27334;BME280;14817;57.104;-2.094;2023-05-23T09:22:24;101554.47;;;21.14;100.00
27334;BME280;14817;57.104;-2.094;2023-05-23T09:25:08;101556.50;;;20.26;100.00
27334;BME280;14817;57.104;-2.094;2023-05-23T09:27:38;101547.03;;;20.22;100.00
27334;BME280;14817;57.104;-2.094;2023-05-23T09:30:07;101549.19;;;20.48;100.00
27334;BME280;14817;57.104;-2.094;2023-05-23T09:32:34;101553.19;;;21.10;100.00
27334;BME280;14817;57.104;-2.094;2023-05-23T09:35:04;101552.19;;;20.90;100.00
27334;BME280;14817;57.104;-2.094;2023-05-23T09:37:37;101555.13;;;20.95;100.00
27334;BME280;14817;57.104;-2.094;2023-05-23T09:40:12;101544.75;;;21.05;100.00
27334;BME280;14817;57.104;-2.094;2023-05-23T09:42:49;101544.47;;;20.72;100.00
27334;BME280;14817;57.104;-2.094;2023-05-23T09:45:16;101548.00;;;20.51;100.00
27334;BME280;14817;57.104;-2.094;2023-05-23T09:47:52;101538.84;;;21.23;100.00
27334;BME280;14817;57.104;-2.094;2023-05-23T09:50:20;101545.34;;;21.00;100.00
27334;BME280;14817;57.104;-2.094;2023-05-23T09:52:47;101542.31;;;20.31;100.00
27334;BME280;14817;57.104;-2.094;2023-05-23T09:55:14;101544.34;;;20.07;100.00
27334;BME280;14817;57.104;-2.094;2023-05-23T09:57:42;101545.84;;;20.46;100.00
27334;BME280;14817;57.104;-2.094;2023-05-23T10:00:10;101542.72;;;20.28;100.00
27334;BME280;14817;57.104;-2.094;2023-05-23T10:03:01;101538.56;;;20.32;100.00
27334;BME280;14817;57.104;-2.094;2023-05-23T10:05:47;101527.06;;;20.51;100.00
27334;BME280;14817;57.104;-2.094;2023-05-23T10:08:18;101532.84;;;20.27;100.00
27334;BME280;14817;57.104;-2.094;2023-05-23T10:13:24;101531.06;;;20.34;100.00
27334;BME280;14817;57.104;-2.094;2023-05-23T10:18:55;101523.47;;;20.29;100.00
27334;BME280;14817;57.104;-2.094;2023-05-23T10:21:34;101527.31;;;20.56;100.00
27334;BME280;14817;57.104;-2.094;2023-05-23T10:24:04;101526.19;;;19.93;100.00
27334;BME280;14817;57.104;-2.094;2023-05-23T10:26:32;101520.34;;;19.96;100.00
27334;BME280;14817;57.104;-2.094;2023-05-23T10:29:00;101512.41;;;20.52;100.00
27334;BME280;14817;57.104;-2.094;2023-05-23T10:31:28;101517.31;;;20.78;100.00
27334;BME280;14817;57.104;-2.094;2023-05-23T10:34:02;101518.66;;;20.46;100.00
27334;BME280;14817;57.104;-2.094;2023-05-23T10:36:39;101508.56;;;20.83;100.00
27334;BME280;14817;57.104;-2.094;2023-05-23T10:39:40;101504.75;;;20.41;100.00
27334;BME280;14817;57.104;-2.094;2023-05-23T10:42:09;101507.16;;;19.63;100.00
27334;BME280;14817;57.104;-2.094;2023-05-23T10:44:37;101498.41;;;20.34;100.00
27334;BME280;14817;57.104;-2.094;2023-05-23T10:47:04;101501.91;;;19.91;100.00
27334;BME280;14817;57.104;-2.094;2023-05-23T10:49:45;101493.38;;;20.16;100.00
27334;BME280;14817;57.104;-2.094;2023-05-23T10:52:14;101498.34;;;19.91;100.00
27334;BME280;14817;57.104;-2.094;2023-05-23T10:54:45;101489.63;;;19.81;100.00
27334;BME280;14817;57.104;-2.094;2023-05-23T10:57:16;101492.50;;;19.64;100.00
27334;BME280;14817;57.104;-2.094;2023-05-23T10:59:44;101482.13;;;19.23;100.00
27334;BME280;14817;57.104;-2.094;2023-05-23T11:02:24;101481.41;;;18.91;100.00
27334;BME280;14817;57.104;-2.094;2023-05-23T11:05:23;101469.50;;;18.92;100.00
27334;BME280;14817;57.104;-2.094;2023-05-23T11:08:13;101469.97;;;18.81;100.00
27334;BME280;14817;57.104;-2.094;2023-05-23T11:13:20;101474.25;;;19.43;100.00
27334;BME280;14817;57.104;-2.094;2023-05-23T11:15:48;101462.44;;;19.36;100.00
27334;BME280;14817;57.104;-2.094;2023-05-23T11:18:23;101457.38;;;19.33;100.00
27334;BME280;14817;57.104;-2.094;2023-05-23T11:20:51;101448.03;;;19.21;100.00
27334;BME280;14817;57.104;-2.094;2023-05-23T11:23:20;101453.06;;;19.09;100.00
27334;BME280;14817;57.104;-2.094;2023-05-23T11:25:51;101455.38;;;18.82;100.00
27334;BME280;14817;57.104;-2.094;2023-05-23T11:28:19;101453.22;;;18.31;100.00
27334;BME280;14817;57.104;-2.094;2023-05-23T11:30:49;101454.00;;;18.63;100.00
27334;BME280;14817;57.104;-2.094;2023-05-23T11:33:17;101454.56;;;19.26;100.00
27334;BME280;14817;57.104;-2.094;2023-05-23T11:35:46;101445.84;;;19.75;100.00
27334;BME280;14817;57.104;-2.094;2023-05-23T11:38:14;101443.69;;;19.56;100.00
27334;BME280;14817;57.104;-2.094;2023-05-23T11:40:45;101446.63;;;19.40;100.00
27334;BME280;14817;57.104;-2.094;2023-05-23T11:43:14;101447.13;;;19.94;100.00
27334;BME280;14817;57.104;-2.094;2023-05-23T11:45:42;101442.34;;;19.96;100.00
27334;BME280;14817;57.104;-2.094;2023-05-23T11:48:13;101446.31;;;19.79;100.00
27334;BME280;14817;57.104;-2.094;2023-05-23T11:53:09;101438.28;;;19.11;100.00
27334;BME280;14817;57.104;-2.094;2023-05-23T11:55:39;101438.06;;;18.83;100.00
27334;BME280;14817;57.104;-2.094;2023-05-23T11:58:06;101451.50;;;18.53;100.00
27334;BME280;14817;57.104;-2.094;2023-05-23T12:00:33;101457.13;;;18.29;100.00
27334;BME280;14817;57.104;-2.094;2023-05-23T12:03:05;101468.44;;;18.09;100.00
27334;BME280;14817;57.104;-2.094;2023-05-23T12:05:32;101464.97;;;17.92;100.00
27334;BME280;14817;57.104;-2.094;2023-05-23T12:07:59;101474.81;;;17.46;100.00
27334;BME280;14817;57.104;-2.094;2023-05-23T12:10:26;101464.53;;;17.72;100.00
27334;BME280;14817;57.104;-2.094;2023-05-23T12:12:53;101467.81;;;17.51;100.00
27334;BME280;14817;57.104;-2.094;2023-05-23T12:15:25;101467.53;;;17.38;100.00
27334;BME280;14817;57.104;-2.094;2023-05-23T12:17:55;101467.94;;;17.19;100.00
27334;BME280;14817;57.104;-2.094;2023-05-23T12:20:24;101467.09;;;17.10;100.00
27334;BME280;14817;57.104;-2.094;2023-05-23T12:22:53;101460.34;;;16.65;100.00
27334;BME280;14817;57.104;-2.094;2023-05-23T12:25:19;101467.13;;;16.85;100.00
27334;BME280;14817;57.104;-2.094;2023-05-23T12:27:48;101466.78;;;16.97;100.00
27334;BME280;14817;57.104;-2.094;2023-05-23T12:30:16;101454.06;;;17.13;100.00
27334;BME280;14817;57.104;-2.094;2023-05-23T12:32:44;101450.03;;;17.01;100.00
27334;BME280;14817;57.104;-2.094;2023-05-23T12:35:14;101449.34;;;16.74;100.00
27334;BME280;14817;57.104;-2.094;2023-05-23T12:37:44;101451.41;;;16.81;100.00
27334;BME280;14817;57.104;-2.094;2023-05-23T12:40:20;101449.53;;;16.65;100.00
27334;BME280;14817;57.104;-2.094;2023-05-23T12:42:51;101431.59;;;16.56;100.00
27334;BME280;14817;57.104;-2.094;2023-05-23T12:45:22;101433.50;;;16.39;100.00
27334;BME280;14817;57.104;-2.094;2023-05-23T12:47:49;101433.13;;;16.42;100.00
27334;BME280;14817;57.104;-2.094;2023-05-23T12:50:19;101420.09;;;16.53;100.00
27334;BME280;14817;57.104;-2.094;2023-05-23T12:52:46;101413.00;;;16.28;100.00
27334;BME280;14817;57.104;-2.094;2023-05-23T12:55:13;101415.06;;;16.18;100.00
27334;BME280;14817;57.104;-2.094;2023-05-23T12:57:40;101418.25;;;16.38;100.00
27334;BME280;14817;57.104;-2.094;2023-05-23T13:00:07;101409.28;;;16.12;100.00
27334;BME280;14817;57.104;-2.094;2023-05-23T13:02:34;101417.56;;;16.11;100.00
27334;BME280;14817;57.104;-2.094;2023-05-23T13:05:01;101420.41;;;15.93;100.00
27334;BME280;14817;57.104;-2.094;2023-05-23T13:07:28;101414.50;;;15.47;100.00